createdAt,value
2022-08-11T00:01:21.320Z,3.00
2022-08-11T00:03:53.550Z,3.35
2022-08-11T00:06:26.639Z,3.10
2022-08-11T00:08:54.939Z,3.33
2022-08-11T00:11:22.696Z,2.72
2022-08-11T00:13:54.342Z,2.83
2022-08-11T00:16:24.795Z,2.90
2022-08-11T00:18:54.433Z,2.75
2022-08-11T00:22:03.176Z,2.80
2022-08-11T00:24:11.299Z,2.90
2022-08-11T00:26:38.232Z,3.00
2022-08-11T00:29:09.892Z,2.95
2022-08-11T00:31:38.430Z,3.05
2022-08-11T00:34:11.655Z,3.53
2022-08-11T00:36:55.460Z,3.20
2022-08-11T00:39:28.717Z,3.17
2022-08-11T00:42:26.353Z,3.30
2022-08-11T00:45:02.031Z,2.25
2022-08-11T00:47:31.940Z,3.00
2022-08-11T00:50:17.489Z,3.33
2022-08-11T00:53:12.214Z,2.58
2022-08-11T00:55:47.155Z,3.13
2022-08-11T00:58:28.466Z,3.17
2022-08-11T01:01:10.712Z,3.70
2022-08-11T01:03:56.584Z,3.25
2022-08-11T01:07:06.051Z,3.00
2022-08-11T01:10:15.608Z,3.53
2022-08-11T01:13:20.195Z,3.60
2022-08-11T01:16:15.728Z,3.20
2022-08-11T01:19:12.258Z,3.33
2022-08-11T01:22:03.242Z,3.45
2022-08-11T01:25:00.940Z,3.42
2022-08-11T01:28:01.120Z,3.13
2022-08-11T01:31:15.259Z,3.08
2022-08-11T01:34:08.395Z,3.25
2022-08-11T01:36:57.300Z,3.13
2022-08-11T01:39:49.298Z,3.28
2022-08-11T01:43:12.906Z,3.40
2022-08-11T01:45:48.684Z,3.10
2022-08-11T01:48:33.882Z,3.03
2022-08-11T01:51:32.007Z,3.70
2022-08-11T01:54:09.204Z,3.33
2022-08-11T01:56:44.930Z,2.60
2022-08-11T01:59:48.680Z,3.33
2022-08-11T02:02:21.355Z,3.47
2022-08-11T02:05:20.411Z,3.33
2022-08-11T02:08:08.336Z,3.30
2022-08-11T02:11:08.762Z,2.90
2022-08-11T02:13:52.153Z,3.22
2022-08-11T02:16:24.986Z,3.25
2022-08-11T02:19:37.851Z,3.33
2022-08-11T02:22:35.189Z,3.42
2022-08-11T02:25:38.651Z,3.53
2022-08-11T02:28:33.761Z,3.40
2022-08-11T02:32:05.106Z,3.40
2022-08-11T02:34:25.169Z,3.58
2022-08-11T02:37:23.692Z,2.60
2022-08-11T02:40:00.555Z,4.22
2022-08-11T02:42:45.423Z,3.70
2022-08-11T02:45:12.546Z,3.40
2022-08-11T02:48:13.006Z,3.70
2022-08-11T02:50:59.748Z,3.53
2022-08-11T02:53:56.145Z,2.63
2022-08-11T02:56:44.615Z,3.38
2022-08-11T02:59:53.840Z,3.70
2022-08-11T03:02:32.804Z,2.88
2022-08-11T03:05:07.330Z,3.45
2022-08-11T03:07:56.107Z,3.25
2022-08-11T03:13:19.480Z,3.88
2022-08-11T03:16:11.057Z,2.50
2022-08-11T03:18:45.631Z,4.00
2022-08-11T03:21:24.651Z,3.75
2022-08-11T03:24:21.996Z,3.38
2022-08-11T03:27:01.102Z,3.50
2022-08-11T03:30:02.540Z,3.40
2022-08-11T03:33:08.332Z,3.70
2022-08-11T03:35:41.859Z,3.63
2022-08-11T03:38:30.607Z,3.88
2022-08-11T03:42:01.133Z,3.50
2022-08-11T03:44:50.011Z,4.07
2022-08-11T03:47:55.417Z,4.22
2022-08-11T03:50:28.360Z,2.90
2022-08-11T03:53:20.368Z,3.58
2022-08-11T03:56:07.646Z,3.47
2022-08-11T03:59:24.725Z,3.88
2022-08-11T04:01:57.548Z,2.75
2022-08-11T04:05:01.904Z,2.55
2022-08-11T04:07:34.522Z,3.78
2022-08-11T04:10:11.249Z,3.40
2022-08-11T04:13:03.431Z,3.80
2022-08-11T04:15:51.837Z,4.10
2022-08-11T04:18:39.357Z,3.97
2022-08-11T04:21:44.073Z,4.88
2022-08-11T04:24:39.748Z,4.70
2022-08-11T04:27:52.407Z,4.30
2022-08-11T04:30:27.155Z,4.03
2022-08-11T04:33:34.256Z,5.03
2022-08-11T04:36:09.698Z,4.68
2022-08-11T04:39:09.835Z,4.70
2022-08-11T04:42:31.030Z,4.35
2022-08-11T04:45:22.900Z,4.50
2022-08-11T04:48:36.113Z,4.10
2022-08-11T04:51:40.788Z,4.72
2022-08-11T04:54:41.683Z,3.90
2022-08-11T04:57:50.455Z,4.50
2022-08-11T05:00:37.380Z,4.10
2022-08-11T05:03:22.279Z,4.30
2022-08-11T05:06:19.905Z,4.40
2022-08-11T05:09:23.678Z,4.82
2022-08-11T05:12:26.908Z,4.13
2022-08-11T05:15:13.720Z,4.30
2022-08-11T05:18:16.117Z,3.70
2022-08-11T05:21:09.346Z,4.75
2022-08-11T05:24:00.183Z,4.30
2022-08-11T05:26:49.821Z,3.60
2022-08-11T05:30:14.429Z,3.67
2022-08-11T05:33:04.027Z,4.05
2022-08-11T05:36:00.005Z,4.60
2022-08-11T05:38:54.635Z,4.38
2022-08-11T05:41:46.171Z,4.30
2022-08-11T05:44:39.424Z,4.85
2022-08-11T05:47:25.963Z,4.68
2022-08-11T05:50:13.622Z,5.32
2022-08-11T05:53:09.026Z,4.20
2022-08-11T05:56:03.577Z,4.40
2022-08-11T05:59:30.701Z,4.55
2022-08-11T06:02:07.337Z,4.10
2022-08-11T06:04:35.078Z,3.72
2022-08-11T06:07:09.248Z,3.83
2022-08-11T06:09:46.906Z,4.72
2022-08-11T06:12:21.452Z,4.60
2022-08-11T06:14:53.792Z,4.32
2022-08-11T06:17:27.184Z,4.38
2022-08-11T06:20:11.807Z,3.95
2022-08-11T06:22:52.376Z,3.55
2022-08-11T06:25:20.739Z,3.42
2022-08-11T06:27:58.706Z,3.95
2022-08-11T06:30:42.126Z,4.00
2022-08-11T06:33:39.697Z,4.65
2022-08-11T06:36:23.643Z,3.83
2022-08-11T06:39:09.978Z,4.30
2022-08-11T06:41:53.973Z,3.30
2022-08-11T06:44:39.320Z,3.95
2022-08-11T06:47:09.925Z,4.70
2022-08-11T06:50:01.610Z,3.60
2022-08-11T06:52:37.583Z,4.10
2022-08-11T06:55:55.664Z,3.22
2022-08-11T06:58:23.722Z,4.20
2022-08-11T07:00:55.533Z,3.28
2022-08-11T07:03:23.760Z,3.03
2022-08-11T07:06:04.698Z,3.13
2022-08-11T07:09:31.339Z,4.10
2022-08-11T07:12:45.519Z,3.58
2022-08-11T07:16:12.424Z,3.22
2022-08-11T07:18:48.336Z,4.20
2022-08-11T07:22:03.214Z,3.67
2022-08-11T07:25:14.039Z,3.70
2022-08-11T07:28:08.731Z,4.18
2022-08-11T07:30:41.608Z,4.00
2022-08-11T07:33:11.630Z,3.50
2022-08-11T07:36:01.267Z,3.63
2022-08-11T07:38:47.445Z,3.83
2022-08-11T07:41:23.407Z,3.92
2022-08-11T07:44:08.915Z,3.47
2022-08-11T07:47:03.948Z,3.67
2022-08-11T07:49:54.404Z,3.83
2022-08-11T07:52:31.195Z,3.47
2022-08-11T07:55:05.294Z,3.85
2022-08-11T07:58:16.455Z,3.70
2022-08-11T08:01:08.625Z,3.40
2022-08-11T08:03:59.548Z,3.47
2022-08-11T08:06:47.638Z,3.85
2022-08-11T08:09:35.827Z,3.60
2022-08-11T08:12:22.830Z,3.50
2022-08-11T08:15:11.654Z,3.00
2022-08-11T08:18:20.770Z,3.58
2022-08-11T08:20:47.342Z,3.22
2022-08-11T08:23:14.745Z,3.20
2022-08-11T08:25:44.067Z,3.30
2022-08-11T08:28:15.168Z,3.22
2022-08-11T08:30:53.219Z,4.13
2022-08-11T08:33:25.697Z,3.60
2022-08-11T08:36:16.446Z,3.50
2022-08-11T08:38:53.641Z,3.50
2022-08-11T08:41:25.335Z,3.60
2022-08-11T08:44:20.695Z,3.15
2022-08-11T08:46:50.846Z,3.50
2022-08-11T08:49:23.516Z,3.35
2022-08-11T08:52:19.401Z,2.78
2022-08-11T08:54:44.649Z,3.15
2022-08-11T08:57:14.106Z,3.88
2022-08-11T08:59:48.680Z,3.47
2022-08-11T09:02:33.638Z,3.20
2022-08-11T09:05:10.200Z,3.45
2022-08-11T09:07:40.396Z,3.50
2022-08-11T09:10:11.260Z,3.30
2022-08-11T09:12:42.029Z,3.40
2022-08-11T09:15:12.009Z,3.53
2022-08-11T09:17:40.750Z,3.17
2022-08-11T09:20:13.730Z,3.40
2022-08-11T09:26:18.755Z,3.20
2022-08-11T09:28:47.165Z,3.60
2022-08-11T09:31:16.057Z,3.38
2022-08-11T09:33:44.838Z,3.75
2022-08-11T09:36:32.444Z,4.43
2022-08-11T09:39:19.738Z,3.83
2022-08-11T09:42:01.518Z,3.63
2022-08-11T09:44:52.846Z,3.42
2022-08-11T09:47:26.849Z,3.30
2022-08-11T09:50:00.683Z,3.60
2022-08-11T09:52:30.919Z,3.67
2022-08-11T09:54:59.930Z,3.60
2022-08-11T09:57:45.220Z,3.80
2022-08-11T10:00:14.526Z,2.90
2022-08-11T10:02:48.641Z,3.42
2022-08-11T10:05:37.493Z,3.42
2022-08-11T10:08:07.468Z,3.40
2022-08-11T10:10:38.087Z,3.42
2022-08-11T10:14:31.947Z,3.20
2022-08-11T10:16:15.675Z,3.55
2022-08-11T10:18:53.746Z,3.10
2022-08-11T10:21:38.332Z,2.50
2022-08-11T10:24:26.346Z,3.03
2022-08-11T10:26:55.016Z,3.53
2022-08-11T10:29:52.610Z,2.88
2022-08-11T10:32:57.231Z,2.95
2022-08-11T10:35:28.124Z,3.20
2022-08-11T10:38:08.144Z,2.83
2022-08-11T10:40:39.579Z,2.80
2022-08-11T10:43:10.583Z,3.00
2022-08-11T10:45:58.362Z,3.03
2022-08-11T10:51:13.450Z,3.15
2022-08-11T10:54:04.945Z,3.15
2022-08-11T10:56:54.138Z,2.90
2022-08-11T10:59:23.446Z,2.95
2022-08-11T11:01:52.854Z,2.20
2022-08-11T11:04:50.751Z,2.30
2022-08-11T11:07:24.952Z,2.22
2022-08-11T11:09:58.749Z,2.22
2022-08-11T11:12:53.881Z,2.40
2022-08-11T11:15:41.829Z,2.55
2022-08-11T11:18:44.420Z,2.20
2022-08-11T11:21:28.682Z,2.20
2022-08-11T11:24:37.437Z,2.50
2022-08-11T11:27:22.808Z,2.20
2022-08-11T11:30:04.837Z,2.80
2022-08-11T11:33:09.576Z,2.50
2022-08-11T11:36:02.260Z,2.60
2022-08-11T11:38:29.757Z,2.78
2022-08-11T11:41:15.927Z,2.28
2022-08-11T11:43:43.926Z,2.50
2022-08-11T11:46:11.245Z,2.25
2022-08-11T11:48:41.121Z,2.85
2022-08-11T11:51:09.293Z,2.40
2022-08-11T11:53:36.735Z,2.60
2022-08-11T11:56:04.444Z,2.50
2022-08-11T11:58:49.985Z,2.55
2022-08-11T12:01:25.243Z,2.90
2022-08-11T12:03:54.069Z,3.03
2022-08-11T12:06:23.396Z,2.15
2022-08-11T12:08:53.594Z,2.33
2022-08-11T12:11:45.108Z,2.53
2022-08-11T12:14:13.133Z,2.58
2022-08-11T12:16:43.639Z,2.60
2022-08-11T12:19:35.569Z,2.83
2022-08-11T12:22:22.138Z,2.80
2022-08-11T12:25:07.829Z,2.53
2022-08-11T12:27:39.485Z,2.67
2022-08-11T12:30:09.511Z,2.72
2022-08-11T12:32:38.643Z,2.83
2022-08-11T12:35:07.300Z,2.80
2022-08-11T12:40:43.408Z,2.53
2022-08-11T12:43:41.023Z,3.35
2022-08-11T12:46:45.051Z,2.60
2022-08-11T12:49:45.570Z,2.60
2022-08-11T12:52:20.637Z,3.15
2022-08-11T12:58:05.414Z,3.15
2022-08-11T13:00:51.265Z,2.65
2022-08-11T13:03:40.667Z,2.90
2022-08-11T13:06:08.903Z,2.30
2022-08-11T13:11:24.985Z,2.80
2022-08-11T13:17:04.686Z,2.95
2022-08-11T13:19:32.281Z,2.60
2022-08-11T13:22:05.156Z,2.90
2022-08-11T13:24:34.229Z,2.80
2022-08-11T13:27:04.066Z,2.60
2022-08-11T13:29:31.058Z,2.80
2022-08-11T13:31:59.891Z,2.97
2022-08-11T13:34:28.783Z,2.65
2022-08-11T13:37:00.123Z,2.83
2022-08-11T13:39:30.923Z,2.65
2022-08-11T13:41:59.948Z,2.78
2022-08-11T13:44:33.874Z,2.75
2022-08-11T13:47:09.423Z,2.80
2022-08-11T13:49:40.291Z,2.80
2022-08-11T13:52:13.246Z,2.65
2022-08-11T13:55:07.144Z,2.90
2022-08-11T13:58:19.326Z,2.70
2022-08-11T14:00:24.916Z,2.42
2022-08-11T14:02:56.802Z,2.97
2022-08-11T14:08:37.605Z,3.17
2022-08-11T14:12:21.751Z,2.65
2022-08-11T14:14:11.180Z,2.80
2022-08-11T14:16:43.983Z,2.78
2022-08-11T14:19:14.274Z,2.55
2022-08-11T14:22:07.018Z,3.00
2022-08-11T14:24:43.117Z,2.80
2022-08-11T14:28:29.425Z,3.03
2022-08-11T14:30:00.288Z,2.97
2022-08-11T14:32:28.096Z,3.00
2022-08-11T14:34:55.812Z,3.00
2022-08-11T14:37:25.268Z,3.03
2022-08-11T14:40:21.784Z,3.40
2022-08-11T14:43:07.479Z,2.80
2022-08-11T14:45:57.762Z,2.88
2022-08-11T14:48:27.215Z,3.00
2022-08-11T14:50:54.846Z,2.90
2022-08-11T14:53:25.844Z,2.95
2022-08-11T14:56:13.374Z,3.10
2022-08-11T14:58:42.771Z,3.45
2022-08-11T15:01:30.718Z,2.85
2022-08-11T15:04:35.183Z,3.60
2022-08-11T15:06:47.452Z,3.10
2022-08-11T15:09:15.210Z,3.08
2022-08-11T15:12:02.173Z,2.90
2022-08-11T15:14:55.858Z,3.00
2022-08-11T15:20:16.640Z,3.17
2022-08-11T15:23:02.072Z,2.90
2022-08-11T15:25:30.996Z,3.20
2022-08-11T15:28:18.191Z,2.90
2022-08-11T15:31:06.054Z,2.95
2022-08-11T15:33:54.353Z,2.95
2022-08-11T15:36:41.128Z,3.25
2022-08-11T15:40:33.241Z,2.92
2022-08-11T15:43:29.300Z,3.08
2022-08-11T15:46:02.228Z,3.20
2022-08-11T15:48:35.624Z,2.90
2022-08-11T15:51:16.739Z,3.28
2022-08-11T15:53:56.802Z,3.10
2022-08-11T15:56:27.669Z,3.40
2022-08-11T15:59:42.133Z,2.95
2022-08-11T16:02:23.610Z,2.95
2022-08-11T16:04:51.463Z,2.78
2022-08-11T16:07:27.000Z,2.90
2022-08-11T16:10:10.830Z,3.05
2022-08-11T16:13:06.033Z,2.80
2022-08-11T16:15:55.174Z,3.13
2022-08-11T16:18:40.870Z,2.78
2022-08-11T16:21:33.737Z,2.67
2022-08-11T16:24:05.165Z,3.40
2022-08-11T16:27:08.308Z,2.80
2022-08-11T16:29:25.403Z,3.00
2022-08-11T16:32:17.994Z,2.90
2022-08-11T16:35:10.163Z,3.00
2022-08-11T16:37:56.869Z,3.45
2022-08-11T16:40:25.042Z,3.00
2022-08-11T16:43:12.826Z,3.10
2022-08-11T16:46:00.887Z,2.92
2022-08-11T16:48:35.606Z,2.78
2022-08-11T16:51:12.286Z,2.83
2022-08-11T16:53:50.124Z,3.70
2022-08-11T16:56:41.777Z,2.83
2022-08-11T16:59:18.817Z,2.70
2022-08-11T17:02:34.911Z,3.13
2022-08-11T17:05:38.254Z,4.78
2022-08-11T17:08:57.903Z,3.15
2022-08-11T17:11:50.080Z,3.03
2022-08-11T17:14:35.658Z,4.07
2022-08-11T17:17:11.878Z,3.00
2022-08-11T17:20:38.666Z,2.58
2022-08-11T17:22:57.372Z,2.60
2022-08-11T17:25:32.388Z,3.05
2022-08-11T17:28:21.998Z,3.03
2022-08-11T17:31:22.699Z,3.00
2022-08-11T17:34:15.579Z,2.67
2022-08-11T17:36:45.765Z,2.72
2022-08-11T17:39:16.540Z,2.70
2022-08-11T17:42:05.960Z,3.42
2022-08-11T17:44:54.511Z,5.55
2022-08-11T17:47:42.700Z,6.63
2022-08-11T17:50:17.044Z,2.97
2022-08-11T17:53:08.383Z,2.88
2022-08-11T17:55:57.573Z,3.50
2022-08-11T17:58:44.475Z,4.18
2022-08-11T18:01:13.008Z,4.60
2022-08-11T18:03:57.435Z,2.90
2022-08-11T18:06:34.430Z,4.82
2022-08-11T18:09:38.788Z,3.42
2022-08-11T18:12:30.280Z,3.40
2022-08-11T18:15:16.968Z,2.90
2022-08-11T18:18:02.404Z,3.40
2022-08-11T18:20:48.813Z,3.60
2022-08-11T18:23:46.875Z,2.90
2022-08-11T18:26:39.248Z,2.90
2022-08-11T18:29:26.773Z,2.38
2022-08-11T18:32:21.866Z,2.65
2022-08-11T18:35:16.857Z,3.15
2022-08-11T18:38:11.775Z,2.60
2022-08-11T18:40:57.853Z,2.40
2022-08-11T18:43:46.178Z,2.72
2022-08-11T18:46:35.073Z,2.42
2022-08-11T18:50:01.420Z,2.55
2022-08-11T18:52:36.571Z,3.28
2022-08-11T18:55:26.667Z,2.45
2022-08-11T18:58:14.459Z,2.40
2022-08-11T19:01:01.872Z,2.30
2022-08-11T19:03:49.622Z,2.53
2022-08-11T19:06:41.036Z,2.30
2022-08-11T19:09:35.487Z,2.50
2022-08-11T19:12:24.989Z,2.15
2022-08-11T19:15:11.764Z,2.13
2022-08-11T19:18:03.513Z,2.42
2022-08-11T19:20:51.200Z,2.47
2022-08-11T19:23:43.697Z,2.60
2022-08-11T19:26:30.011Z,2.20
2022-08-11T19:30:11.930Z,2.17
2022-08-11T19:32:23.954Z,2.40
2022-08-11T19:35:11.935Z,2.13
2022-08-11T19:37:59.227Z,2.60
2022-08-11T19:40:45.548Z,2.28
2022-08-11T19:43:32.208Z,2.70
2022-08-11T19:46:19.929Z,4.75
2022-08-11T19:49:09.949Z,3.00
2022-08-11T19:52:05.720Z,2.30
2022-08-11T19:54:55.757Z,2.70
2022-08-11T19:57:43.748Z,2.33
2022-08-11T20:00:37.282Z,2.47
2022-08-11T20:03:27.310Z,2.80
2022-08-11T20:06:19.691Z,2.10
2022-08-11T20:09:08.193Z,2.22
2022-08-11T20:14:45.189Z,2.40
2022-08-11T20:17:33.706Z,2.50
2022-08-11T20:26:08.537Z,2.05
2022-08-11T20:29:02.734Z,2.47
2022-08-11T20:31:49.128Z,2.55
2022-08-11T20:34:36.609Z,2.20
2022-08-11T20:37:24.515Z,2.35
2022-08-11T20:46:13.306Z,2.50
2022-08-11T20:49:00.734Z,2.25
2022-08-11T20:51:51.213Z,2.47
2022-08-11T20:54:43.336Z,2.40
2022-08-11T20:57:58.899Z,2.45
2022-08-11T21:00:39.643Z,3.17
2022-08-11T21:03:36.224Z,2.38
2022-08-11T21:06:32.864Z,2.25
2022-08-11T21:09:23.954Z,2.38
2022-08-11T21:12:29.571Z,2.22
2022-08-11T21:15:47.492Z,2.42
2022-08-11T21:18:31.544Z,2.05
2022-08-11T21:21:20.710Z,2.70
2022-08-11T21:24:10.298Z,2.50
2022-08-11T21:27:03.802Z,2.38
2022-08-11T21:29:53.654Z,2.50
2022-08-11T21:32:42.737Z,2.75
2022-08-11T21:35:29.570Z,2.60
2022-08-11T21:38:17.122Z,5.95
2022-08-11T21:41:04.793Z,2.72
2022-08-11T21:43:51.623Z,3.17
2022-08-11T21:46:39.097Z,2.72
2022-08-11T21:49:30.662Z,3.25
2022-08-11T21:52:16.737Z,2.63
2022-08-11T21:55:04.086Z,2.58
2022-08-11T21:57:50.720Z,2.97
2022-08-11T23:02:12.257Z,3.22
2022-08-11T23:04:59.153Z,2.88
2022-08-11T23:07:49.844Z,2.80
2022-08-11T23:10:36.648Z,2.63
2022-08-11T23:13:22.624Z,2.80
2022-08-11T23:16:08.871Z,2.35
2022-08-11T23:18:55.138Z,2.70
2022-08-11T23:21:40.904Z,3.00
2022-08-11T23:24:26.793Z,2.95
2022-08-11T23:27:12.822Z,2.58
2022-08-11T23:30:00.215Z,2.65
2022-08-11T23:32:47.772Z,2.80
2022-08-11T23:35:39.059Z,2.88
2022-08-11T23:38:26.335Z,2.95
2022-08-11T23:41:12.377Z,3.00
2022-08-11T23:43:58.082Z,2.97
2022-08-11T23:46:45.392Z,2.67
2022-08-11T23:49:31.117Z,3.00
2022-08-11T23:52:17.195Z,2.58
2022-08-11T23:55:04.365Z,3.20
2022-08-11T23:57:50.135Z,2.90
